Terminal Aerodrome Forecast
Issued by NWS

Home | Current Version | Previous Version | Text Only | Print | Product List | Glossary On
Versions: 1 2 3 4 5 6 7 8 9 10 11 12 13 14 15 16 17 18 19 20 21 22
000
FTUS43 KBIS 052326
TAFJMS
TAF
KJMS 052326Z 0600/0624 35015KT P6SM -RA SCT035 OVC050
     FM060100 36010KT P6SM BKN050
     FM061400 35015KT P6SM SCT040 BKN070
     FM062200 24014KT P6SM SCT070 BKN150=

USA.gov is the U.S. government's official web portal to all federal, state and local government web resources and services.